Time,TemperatureF,DewpointF,PressureIn,WindDirection,WindDirectionDegrees,WindSpeedMPH,WindSpeedGustMPH,Humidity,HourlyPrecipIn,Conditions,Clouds,dailyrainin,SolarRadiationWatts/m^2,SoftwareType,DateUTC
2013-11-07 00:05:00,56.6,54.9,29.90,SSE,164,0.0,1.0,94,0.00,,,0.00,0,Wunderground v.1.15,2013-11-06 23:05:00,
2013-11-07 00:11:00,56.8,55.1,29.90,SSE,164,0.0,0.0,94,0.00,,,0.00,0,Wunderground v.1.15,2013-11-06 23:11:00,
2013-11-07 00:16:00,56.3,54.6,29.91,SSE,164,1.0,1.0,94,0.00,,,0.00,0,Wunderground v.1.15,2013-11-06 23:16:00,
2013-11-07 00:26:00,56.4,54.7,29.92,SSE,164,1.0,1.0,94,0.00,,,0.00,0,Wunderground v.1.15,2013-11-06 23:26:00,
2013-11-07 00:31:00,56.3,54.6,29.92,SSE,164,0.0,0.0,94,0.00,,,0.00,0,Wunderground v.1.15,2013-11-06 23:31:00,
2013-11-07 00:40:00,56.7,55.3,29.91,SSE,164,1.0,1.0,95,0.00,,,0.00,0,Wunderground v.1.15,2013-11-06 23:40:00,
2013-11-07 00:46:00,56.6,54.9,29.91,SSE,164,1.0,1.0,94,0.00,,,0.00,0,Wunderground v.1.15,2013-11-06 23:46:00,
2013-11-07 00:55:00,56.6,54.9,29.92,SSE,164,0.0,0.0,94,0.00,,,0.00,0,Wunderground v.1.15,2013-11-06 23:55:00,
2013-11-07 01:01:00,56.1,54.4,29.92,SSE,164,0.0,0.0,94,0.00,,,0.00,0,Wunderground v.1.15,2013-11-07 00:01:00,
2013-11-07 01:06:00,56.1,54.4,29.91,ESE,113,1.0,2.0,94,0.00,,,0.00,0,Wunderground v.1.15,2013-11-07 00:06:00,
2013-11-07 01:16:00,56.4,54.7,29.91,ENE,78,2.0,4.0,94,0.00,,,0.00,0,Wunderground v.1.15,2013-11-07 00:16:00,
2013-11-07 01:21:00,56.6,54.9,29.92,ENE,76,3.0,3.0,94,0.00,,,0.00,0,Wunderground v.1.15,2013-11-07 00:21:00,
2013-11-07 01:31:00,56.1,54.4,29.92,East,79,1.0,1.0,94,0.00,,,0.00,0,Wunderground v.1.15,2013-11-07 00:31:00,
2013-11-07 01:36:00,55.9,54.2,29.92,East,79,0.0,1.0,94,0.00,,,0.00,0,Wunderground v.1.15,2013-11-07 00:36:00,
2013-11-07 01:46:00,55.9,54.2,29.93,East,79,0.0,0.0,94,0.00,,,0.00,0,Wunderground v.1.15,2013-11-07 00:46:00,
2013-11-07 01:51:00,55.8,54.1,29.93,East,79,0.0,0.0,94,0.00,,,0.00,0,Wunderground v.1.15,2013-11-07 00:51:00,
2013-11-07 02:00:00,55.6,53.9,29.93,East,79,2.0,4.0,94,0.00,,,0.00,0,Wunderground v.1.15,2013-11-07 01:00:00,
2013-11-07 02:06:00,55.5,53.8,29.93,East,99,2.0,4.0,94,0.00,,,0.00,0,Wunderground v.1.15,2013-11-07 01:06:00,
2013-11-07 02:11:00,55.5,53.8,29.93,ENE,74,2.0,2.0,94,0.00,,,0.00,0,Wunderground v.1.15,2013-11-07 01:11:00,
2013-11-07 02:21:00,55.8,53.8,29.94,East,79,2.0,2.0,93,0.00,,,0.00,0,Wunderground v.1.15,2013-11-07 01:21:00,
2013-11-07 02:31:00,56.1,54.1,29.93,East,81,1.0,2.0,93,0.00,,,0.00,0,Wunderground v.1.15,2013-11-07 01:31:00,
2013-11-07 02:36:00,56.3,54.0,29.93,ENE,76,2.0,2.0,92,0.00,,,0.00,0,Wunderground v.1.15,2013-11-07 01:36:00,
2013-11-07 02:41:00,56.3,54.0,29.93,ENE,76,1.0,1.0,92,0.00,,,0.00,0,Wunderground v.1.15,2013-11-07 01:41:00,
2013-11-07 02:51:00,55.0,52.7,29.94,SW,219,2.0,2.0,92,0.00,,,0.00,0,Wunderground v.1.15,2013-11-07 01:51:00,
2013-11-07 02:56:00,55.2,53.2,29.94,SW,219,1.0,2.0,93,0.00,,,0.00,0,Wunderground v.1.15,2013-11-07 01:56:00,
2013-11-07 03:06:00,55.4,53.7,29.93,SW,219,0.0,0.0,94,0.00,,,0.00,0,Wunderground v.1.15,2013-11-07 02:06:00,
2013-11-07 03:11:00,55.6,53.6,29.94,SW,219,0.0,0.0,93,0.00,,,0.00,0,Wunderground v.1.15,2013-11-07 02:11:00,
2013-11-07 03:21:00,55.7,53.4,29.93,SW,219,0.0,0.0,92,0.00,,,0.00,0,Wunderground v.1.15,2013-11-07 02:21:00,
2013-11-07 03:26:00,55.7,53.4,29.93,ENE,78,0.0,1.0,92,0.00,,,0.00,0,Wunderground v.1.15,2013-11-07 02:26:00,
2013-11-07 03:36:00,55.4,53.1,29.94,ENE,78,2.0,2.0,92,0.00,,,0.00,0,Wunderground v.1.15,2013-11-07 02:36:00,
2013-11-07 03:45:00,55.1,52.8,29.94,ENE,78,2.0,2.0,92,0.00,,,0.00,0,Wunderground v.1.15,2013-11-07 02:45:00,
2013-11-07 03:51:00,55.0,53.0,29.93,ENE,74,2.0,2.0,93,0.00,,,0.00,0,Wunderground v.1.15,2013-11-07 02:51:00,
2013-11-07 03:56:00,55.0,53.0,29.94,NE,37,3.0,4.0,93,0.00,,,0.00,0,Wunderground v.1.15,2013-11-07 02:56:00,
2013-11-07 04:06:00,55.0,53.0,29.94,NE,54,1.0,3.0,93,0.00,,,0.00,0,Wunderground v.1.15,2013-11-07 03:06:00,
2013-11-07 04:11:00,55.0,53.0,29.94,NE,54,0.0,2.0,93,0.00,,,0.00,0,Wunderground v.1.15,2013-11-07 03:11:00,
2013-11-07 04:21:00,54.9,52.9,29.95,ENE,63,1.0,1.0,93,0.00,,,0.00,0,Wunderground v.1.15,2013-11-07 03:21:00,
2013-11-07 04:30:00,54.6,52.6,29.95,ENE,70,0.0,0.0,93,0.00,,,0.00,0,Wunderground v.1.15,2013-11-07 03:30:00,
2013-11-07 04:36:00,54.5,52.5,29.95,ENE,70,0.0,0.0,93,0.00,,,0.01,0,Wunderground v.1.15,2013-11-07 03:36:00,
2013-11-07 04:41:00,54.3,52.3,29.95,ENE,70,0.0,0.0,93,0.00,,,0.01,0,Wunderground v.1.15,2013-11-07 03:41:00,
2013-11-07 04:51:00,53.6,51.6,29.95,SE,142,1.0,1.0,93,0.00,,,0.01,0,Wunderground v.1.15,2013-11-07 03:51:00,
2013-11-07 04:56:00,53.5,51.8,29.96,SE,144,1.0,1.0,94,0.00,,,0.01,0,Wunderground v.1.15,2013-11-07 03:56:00,
2013-11-07 05:06:00,53.4,51.7,29.96,SE,144,0.0,0.0,94,0.00,,,0.01,0,Wunderground v.1.15,2013-11-07 04:06:00,
2013-11-07 05:11:00,53.4,51.7,29.96,SE,128,1.0,2.0,94,0.00,,,0.01,0,Wunderground v.1.15,2013-11-07 04:11:00,
2013-11-07 05:16:00,53.4,51.7,29.95,SE,139,1.0,2.0,94,0.00,,,0.01,0,Wunderground v.1.15,2013-11-07 04:16:00,
2013-11-07 05:26:00,53.4,52.0,29.96,SE,128,0.0,1.0,95,0.00,,,0.01,0,Wunderground v.1.15,2013-11-07 04:26:00,
2013-11-07 05:36:00,53.1,51.4,29.97,SE,128,0.0,0.0,94,0.00,,,0.01,0,Wunderground v.1.15,2013-11-07 04:36:00,
2013-11-07 05:41:00,52.9,51.2,29.97,SE,128,0.0,0.0,94,0.00,,,0.01,0,Wunderground v.1.15,2013-11-07 04:41:00,
2013-11-07 05:51:00,52.9,51.5,29.97,SE,128,0.0,0.0,95,0.00,,,0.01,0,Wunderground v.1.15,2013-11-07 04:51:00,
2013-11-07 05:56:00,52.7,51.3,29.97,SE,126,0.0,2.0,95,0.00,,,0.01,0,Wunderground v.1.15,2013-11-07 04:56:00,
2013-11-07 06:06:00,52.7,51.3,29.97,ENE,70,1.0,1.0,95,0.00,,,0.01,0,Wunderground v.1.15,2013-11-07 05:06:00,
2013-11-07 06:15:00,52.6,51.2,29.98,ENE,74,2.0,4.0,95,0.00,,,0.01,0,Wunderground v.1.15,2013-11-07 05:15:00,
2013-11-07 06:21:00,52.6,51.2,29.98,ENE,63,3.0,3.0,95,0.00,,,0.01,0,Wunderground v.1.15,2013-11-07 05:21:00,
2013-11-07 06:30:00,52.8,51.4,29.97,ENE,78,2.0,2.0,95,0.00,,,0.01,0,Wunderground v.1.15,2013-11-07 05:30:00,
2013-11-07 06:36:00,52.8,51.4,29.98,ENE,69,2.0,2.0,95,0.00,,,0.01,0,Wunderground v.1.15,2013-11-07 05:36:00,
2013-11-07 06:41:00,52.7,51.3,29.98,ENE,69,1.0,1.0,95,0.00,,,0.01,0,Wunderground v.1.15,2013-11-07 05:41:00,
2013-11-07 06:51:00,52.9,51.5,29.99,ENE,69,0.0,0.0,95,0.00,,,0.01,5,Wunderground v.1.15,2013-11-07 05:51:00,
2013-11-07 06:55:00,52.9,51.5,29.99,ENE,69,0.0,1.0,95,0.00,,,0.01,7,Wunderground v.1.15,2013-11-07 05:55:00,
2013-11-07 07:01:00,52.7,51.3,29.99,SW,219,1.0,1.0,95,0.00,,,0.01,11,Wunderground v.1.15,2013-11-07 06:01:00,
2013-11-07 07:06:00,52.5,51.1,29.99,SW,219,1.0,1.0,95,0.00,,,0.01,12,Wunderground v.1.15,2013-11-07 06:06:00,
2013-11-07 07:16:00,52.6,51.2,30.00,SW,219,1.0,1.0,95,0.00,,,0.01,16,Wunderground v.1.15,2013-11-07 06:16:00,
2013-11-07 07:25:00,53.1,51.7,30.00,SE,133,1.0,3.0,95,0.00,,,0.01,21,Wunderground v.1.15,2013-11-07 06:25:00,
2013-11-07 07:31:00,53.4,52.0,30.00,SE,144,2.0,2.0,95,0.00,,,0.01,23,Wunderground v.1.15,2013-11-07 06:31:00,
2013-11-07 07:41:00,53.2,51.5,30.00,ENE,78,1.0,1.0,94,0.00,,,0.01,26,Wunderground v.1.15,2013-11-07 06:41:00,
2013-11-07 07:46:00,53.6,51.9,30.01,ESE,123,1.0,2.0,94,0.00,,,0.01,30,Wunderground v.1.15,2013-11-07 06:46:00,
2013-11-07 07:51:00,54.3,52.6,30.00,SSE,149,2.0,2.0,94,0.00,,,0.01,32,Wunderground v.1.15,2013-11-07 06:51:00,
2013-11-07 08:01:00,54.8,52.8,30.01,SSE,161,1.0,4.0,93,0.00,,,0.01,65,Wunderground v.1.15,2013-11-07 07:01:00,
2013-11-07 08:06:00,55.1,52.8,30.01,SSE,164,1.0,4.0,92,0.00,,,0.01,141,Wunderground v.1.15,2013-11-07 07:06:00,
2013-11-07 08:16:00,55.8,53.2,30.01,SSE,164,0.0,1.0,91,0.00,,,0.01,171,Wunderground v.1.15,2013-11-07 07:16:00,
2013-11-07 08:21:00,56.3,53.7,30.02,ESE,102,0.0,1.0,91,0.00,,,0.01,185,Wunderground v.1.15,2013-11-07 07:21:00,
2013-11-07 08:31:00,57.2,54.3,30.02,ESE,122,0.0,0.0,90,0.00,,,0.01,213,Wunderground v.1.15,2013-11-07 07:31:00,
2013-11-07 08:36:00,57.7,54.5,30.03,ESE,122,0.0,0.0,89,0.00,,,0.01,227,Wunderground v.1.15,2013-11-07 07:36:00,
2013-11-07 08:41:00,58.2,55.0,30.03,ESE,122,0.0,0.0,89,0.00,,,0.01,176,Wunderground v.1.15,2013-11-07 07:41:00,
2013-11-07 08:46:00,58.5,55.0,30.03,ESE,122,0.0,2.0,88,0.00,,,0.01,251,Wunderground v.1.15,2013-11-07 07:46:00,
2013-11-07 08:56:00,59.7,56.1,30.03,ESE,122,1.0,1.0,88,0.00,,,0.01,279,Wunderground v.1.15,2013-11-07 07:56:00,
2013-11-07 09:06:00,61.0,57.1,30.03,SE,133,1.0,1.0,87,0.00,,,0.01,302,Wunderground v.1.15,2013-11-07 08:06:00,
2013-11-07 09:16:00,62.7,58.8,30.03,SE,140,0.0,2.0,87,0.00,,,0.01,237,Wunderground v.1.15,2013-11-07 08:16:00,
2013-11-07 09:26:00,64.6,59.7,30.03,SE,136,2.0,2.0,84,0.00,,,0.01,346,Wunderground v.1.15,2013-11-07 08:26:00,
2013-11-07 09:36:00,65.4,60.1,30.04,SE,132,2.0,4.0,83,0.00,,,0.01,378,Wunderground v.1.15,2013-11-07 08:36:00,
2013-11-07 09:46:00,66.0,60.7,30.03,SE,130,2.0,3.0,83,0.00,,,0.01,403,Wunderground v.1.15,2013-11-07 08:46:00,
2013-11-07 09:55:00,66.4,60.7,30.04,ESE,123,2.0,2.0,82,0.00,,,0.01,425,Wunderground v.1.15,2013-11-07 08:55:00,
2013-11-07 10:01:00,66.7,61.0,30.03,SSE,165,2.0,2.0,82,0.00,,,0.01,427,Wunderground v.1.15,2013-11-07 09:01:00,
2013-11-07 10:11:00,67.2,61.5,30.03,South,178,3.0,3.0,82,0.00,,,0.01,446,Wunderground v.1.15,2013-11-07 09:11:00,
2013-11-07 10:16:00,67.4,61.7,30.03,South,189,3.0,5.0,82,0.00,,,0.01,446,Wunderground v.1.15,2013-11-07 09:16:00,
2013-11-07 10:26:00,67.7,62.0,30.04,SSE,163,5.0,6.0,82,0.00,,,0.01,461,Wunderground v.1.15,2013-11-07 09:26:00,
2013-11-07 10:35:00,68.1,62.4,30.04,SSE,154,5.0,8.0,82,0.00,,,0.01,480,Wunderground v.1.15,2013-11-07 09:35:00,
2013-11-07 10:41:00,68.1,62.0,30.04,South,171,6.0,6.0,81,0.00,,,0.01,492,Wunderground v.1.15,2013-11-07 09:41:00,
2013-11-07 10:46:00,68.3,62.2,30.04,South,189,6.0,6.0,81,0.00,,,0.01,490,Wunderground v.1.15,2013-11-07 09:46:00,
2013-11-07 10:56:00,68.6,62.5,30.04,ESE,120,4.0,5.0,81,0.00,,,0.01,501,Wunderground v.1.15,2013-11-07 09:56:00,
2013-11-07 11:06:00,69.0,62.9,30.04,South,187,3.0,4.0,81,0.00,,,0.01,512,Wunderground v.1.15,2013-11-07 10:06:00,
2013-11-07 11:16:00,69.0,62.6,30.04,SSE,161,4.0,4.0,80,0.00,,,0.01,515,Wunderground v.1.15,2013-11-07 10:16:00,
2013-11-07 11:21:00,68.9,62.8,30.04,SSE,161,6.0,7.0,81,0.00,,,0.01,559,Wunderground v.1.15,2013-11-07 10:21:00,
2013-11-07 11:31:00,69.1,63.0,30.04,SSW,194,6.0,6.0,81,0.00,,,0.01,624,Wunderground v.1.15,2013-11-07 10:31:00,
2013-11-07 11:41:00,69.1,63.0,30.04,SSE,163,6.0,8.0,81,0.00,,,0.01,366,Wunderground v.1.15,2013-11-07 10:41:00,
2013-11-07 11:51:00,68.7,62.6,30.04,SSW,194,4.0,4.0,81,0.00,,,0.01,178,Wunderground v.1.15,2013-11-07 10:51:00,
2013-11-07 11:56:00,68.7,63.0,30.04,SSE,148,4.0,5.0,82,0.00,,,0.01,304,Wunderground v.1.15,2013-11-07 10:56:00,
2013-11-07 12:06:00,69.2,63.1,30.03,South,177,6.0,13.0,81,0.00,,,0.01,327,Wunderground v.1.15,2013-11-07 11:06:00,
2013-11-07 12:11:00,69.3,62.9,30.03,SSE,157,7.0,7.0,80,0.00,,,0.01,162,Wunderground v.1.15,2013-11-07 11:11:00,
2013-11-07 12:21:00,69.5,63.4,30.03,SSE,164,6.0,6.0,81,0.00,,,0.01,684,Wunderground v.1.15,2013-11-07 11:21:00,
2013-11-07 12:31:00,69.9,63.1,30.03,SSE,155,5.0,6.0,79,0.00,,,0.01,575,Wunderground v.1.15,2013-11-07 11:31:00,
2013-11-07 12:36:00,70.2,63.4,30.03,South,187,4.0,7.0,79,0.00,,,0.01,554,Wunderground v.1.15,2013-11-07 11:36:00,
2013-11-07 12:46:00,69.2,62.8,30.03,SSE,155,7.0,8.0,80,0.00,,,0.01,174,Wunderground v.1.15,2013-11-07 11:46:00,
2013-11-07 12:56:00,69.3,63.2,30.03,South,183,7.0,8.0,81,0.00,,,0.01,687,Wunderground v.1.15,2013-11-07 11:56:00,
2013-11-07 13:06:00,69.8,62.3,30.03,SSE,163,7.0,12.0,77,0.00,,,0.01,561,Wunderground v.1.15,2013-11-07 12:06:00,
2013-11-07 13:16:00,69.9,61.6,30.03,SE,140,10.0,17.0,75,0.00,,,0.01,520,Wunderground v.1.15,2013-11-07 12:16:00,
2013-11-07 13:25:00,69.9,62.4,30.03,SSW,208,11.0,13.0,77,0.00,,,0.01,496,Wunderground v.1.15,2013-11-07 12:25:00,
2013-11-07 13:31:00,69.5,62.3,30.03,SSE,165,10.0,12.0,78,0.00,,,0.01,218,Wunderground v.1.15,2013-11-07 12:31:00,
2013-11-07 13:36:00,69.4,62.6,30.03,SSE,150,9.0,12.0,79,0.00,,,0.01,503,Wunderground v.1.15,2013-11-07 12:36:00,
2013-11-07 13:46:00,69.5,62.7,30.02,SSE,159,8.0,8.0,79,0.00,,,0.01,128,Wunderground v.1.15,2013-11-07 12:46:00,
2013-11-07 13:56:00,68.8,62.7,30.02,SSE,148,8.0,11.0,81,0.00,,,0.01,199,Wunderground v.1.15,2013-11-07 12:56:00,
2013-11-07 14:01:00,69.0,62.9,30.02,South,190,7.0,11.0,81,0.00,,,0.01,473,Wunderground v.1.15,2013-11-07 13:01:00,
2013-11-07 14:11:00,69.3,62.1,30.02,SE,140,12.0,12.0,78,0.00,,,0.01,497,Wunderground v.1.15,2013-11-07 13:11:00,
2013-11-07 14:21:00,69.0,62.6,30.02,South,182,8.0,8.0,80,0.00,,,0.01,179,Wunderground v.1.15,2013-11-07 13:21:00,
2013-11-07 14:26:00,68.6,62.5,30.02,SSE,163,8.0,8.0,81,0.00,,,0.01,163,Wunderground v.1.15,2013-11-07 13:26:00,
2013-11-07 14:36:00,68.4,62.7,30.03,SSW,211,6.0,8.0,82,0.00,,,0.01,213,Wunderground v.1.15,2013-11-07 13:36:00,
2013-11-07 14:46:00,68.4,62.7,30.03,South,171,7.0,11.0,82,0.00,,,0.01,155,Wunderground v.1.15,2013-11-07 13:46:00,
2013-11-07 14:51:00,68.2,62.5,30.03,SSE,151,7.0,12.0,82,0.00,,,0.01,151,Wunderground v.1.15,2013-11-07 13:51:00,
2013-11-07 15:00:00,68.3,62.9,30.03,SSE,149,6.0,6.0,83,0.00,,,0.01,155,Wunderground v.1.15,2013-11-07 14:00:00,
2013-11-07 15:06:00,68.4,62.7,30.03,ESE,109,6.0,6.0,82,0.00,,,0.01,179,Wunderground v.1.15,2013-11-07 14:06:00,
2013-11-07 15:16:00,68.5,62.4,30.03,SE,138,8.0,16.0,81,0.00,,,0.01,269,Wunderground v.1.15,2013-11-07 14:16:00,
2013-11-07 15:21:00,68.3,61.9,30.03,SSE,157,10.0,11.0,80,0.00,,,0.01,74,Wunderground v.1.15,2013-11-07 14:21:00,
2013-11-07 15:26:00,68.1,62.0,30.03,SE,146,10.0,11.0,81,0.00,,,0.01,190,Wunderground v.1.15,2013-11-07 14:26:00,
2013-11-07 15:36:00,67.9,62.2,30.03,SSE,165,6.0,7.0,82,0.00,,,0.01,46,Wunderground v.1.15,2013-11-07 14:36:00,
2013-11-07 15:46:00,67.4,62.1,30.04,SE,145,6.0,7.0,83,0.00,,,0.01,72,Wunderground v.1.15,2013-11-07 14:46:00,
2013-11-07 15:56:00,67.3,62.3,30.04,SSE,163,6.0,8.0,84,0.00,,,0.01,90,Wunderground v.1.15,2013-11-07 14:56:00,
2013-11-07 16:06:00,67.6,62.6,30.04,SSW,194,6.0,8.0,84,0.00,,,0.01,58,Wunderground v.1.15,2013-11-07 15:06:00,
2013-11-07 16:16:00,67.4,62.4,30.04,South,173,6.0,6.0,84,0.00,,,0.01,44,Wunderground v.1.15,2013-11-07 15:16:00,
2013-11-07 16:26:00,67.2,62.5,30.04,SSE,147,5.0,5.0,85,0.00,,,0.01,23,Wunderground v.1.15,2013-11-07 15:26:00,
2013-11-07 16:36:00,66.8,62.1,30.04,SSE,157,5.0,5.0,85,0.00,,,0.01,21,Wunderground v.1.15,2013-11-07 15:36:00,
2013-11-07 16:45:00,66.7,62.4,30.04,South,182,5.0,7.0,86,0.00,,,0.01,12,Wunderground v.1.15,2013-11-07 15:45:00,
2013-11-07 16:51:00,66.6,62.3,30.04,SE,138,5.0,5.0,86,0.00,,,0.01,9,Wunderground v.1.15,2013-11-07 15:51:00,
2013-11-07 17:01:00,66.3,62.3,30.05,South,171,4.0,4.0,87,0.00,,,0.01,0,Wunderground v.1.15,2013-11-07 16:01:00,
2013-11-07 17:06:00,66.2,62.2,30.05,SSE,159,4.0,6.0,87,0.00,,,0.01,0,Wunderground v.1.15,2013-11-07 16:06:00,
2013-11-07 17:16:00,66.0,62.3,30.05,SSE,150,4.0,4.0,88,0.00,,,0.01,0,Wunderground v.1.15,2013-11-07 16:16:00,
2013-11-07 17:26:00,65.8,62.1,30.05,SSE,152,3.0,3.0,88,0.00,,,0.01,0,Wunderground v.1.15,2013-11-07 16:26:00,
2013-11-07 17:36:00,65.7,62.0,30.05,SSE,165,4.0,5.0,88,0.00,,,0.01,0,Wunderground v.1.15,2013-11-07 16:36:00,
2013-11-07 17:46:00,65.7,62.0,30.06,SE,138,4.0,4.0,88,0.00,,,0.01,0,Wunderground v.1.15,2013-11-07 16:46:00,
2013-11-07 17:56:00,65.6,62.3,30.06,SSE,161,4.0,5.0,89,0.00,,,0.01,0,Wunderground v.1.15,2013-11-07 16:56:00,
2013-11-07 18:06:00,65.5,62.2,30.06,SE,132,5.0,6.0,89,0.00,,,0.01,0,Wunderground v.1.15,2013-11-07 17:06:00,
2013-11-07 18:11:00,65.5,62.2,30.06,SSE,148,5.0,5.0,89,0.00,,,0.01,0,Wunderground v.1.15,2013-11-07 17:11:00,
2013-11-07 18:21:00,65.5,62.2,30.07,SSE,158,4.0,5.0,89,0.00,,,0.01,0,Wunderground v.1.15,2013-11-07 17:21:00,
2013-11-07 18:30:00,65.6,62.3,30.07,SSW,207,5.0,5.0,89,0.00,,,0.01,0,Wunderground v.1.15,2013-11-07 17:30:00,
2013-11-07 18:36:00,65.7,62.4,30.07,SSE,153,5.0,5.0,89,0.00,,,0.01,0,Wunderground v.1.15,2013-11-07 17:36:00,
2013-11-07 18:46:00,65.6,61.9,30.07,SSE,150,4.0,5.0,88,0.00,,,0.01,0,Wunderground v.1.15,2013-11-07 17:46:00,
2013-11-07 18:51:00,65.6,61.9,30.07,SSE,163,4.0,4.0,88,0.00,,,0.01,0,Wunderground v.1.15,2013-11-07 17:51:00,
2013-11-07 19:01:00,65.4,61.8,30.07,SSE,148,4.0,4.0,88,0.00,,,0.01,0,Wunderground v.1.15,2013-11-07 18:01:00,
2013-11-07 19:10:00,65.3,61.7,30.08,South,176,4.0,4.0,88,0.00,,,0.01,0,Wunderground v.1.15,2013-11-07 18:10:00,
2013-11-07 19:16:00,65.3,61.7,30.08,South,169,4.0,4.0,88,0.00,,,0.01,0,Wunderground v.1.15,2013-11-07 18:16:00,
2013-11-07 19:21:00,65.3,61.7,30.08,SSE,148,4.0,4.0,88,0.00,,,0.01,0,Wunderground v.1.15,2013-11-07 18:21:00,
2013-11-07 19:31:00,65.1,61.5,30.08,SE,140,4.0,4.0,88,0.00,,,0.01,0,Wunderground v.1.15,2013-11-07 18:31:00,
2013-11-07 19:41:00,65.1,61.5,30.08,SSE,163,3.0,3.0,88,0.00,,,0.01,0,Wunderground v.1.15,2013-11-07 18:41:00,
2013-11-07 19:51:00,65.3,61.3,30.08,SSE,150,4.0,4.0,87,0.00,,,0.01,0,Wunderground v.1.15,2013-11-07 18:51:00,
2013-11-07 19:56:00,65.3,61.0,30.08,SSE,167,4.0,4.0,86,0.00,,,0.01,0,Wunderground v.1.15,2013-11-07 18:56:00,
2013-11-07 20:06:00,65.2,60.9,30.08,SSE,163,4.0,4.0,86,0.00,,,0.01,0,Wunderground v.1.15,2013-11-07 19:06:00,
2013-11-07 20:16:00,65.1,61.1,30.08,SE,143,2.0,3.0,87,0.00,,,0.01,0,Wunderground v.1.15,2013-11-07 19:16:00,
2013-11-07 20:26:00,65.1,61.1,30.08,SSE,167,4.0,4.0,87,0.00,,,0.01,0,Wunderground v.1.15,2013-11-07 19:26:00,
2013-11-07 20:31:00,65.0,61.0,30.08,SSE,156,3.0,3.0,87,0.00,,,0.01,0,Wunderground v.1.15,2013-11-07 19:31:00,
2013-11-07 20:36:00,65.0,61.4,30.08,SE,143,3.0,3.0,88,0.00,,,0.01,0,Wunderground v.1.15,2013-11-07 19:36:00,
2013-11-07 20:46:00,64.8,61.2,30.08,SSE,157,2.0,3.0,88,0.00,,,0.01,0,Wunderground v.1.15,2013-11-07 19:46:00,
2013-11-07 20:56:00,64.8,61.5,30.09,SSE,166,2.0,2.0,89,0.00,,,0.01,0,Wunderground v.1.15,2013-11-07 19:56:00,
2013-11-07 21:01:00,65.0,61.7,30.09,SSE,161,3.0,4.0,89,0.00,,,0.01,0,Wunderground v.1.15,2013-11-07 20:01:00,
2013-11-07 21:11:00,64.5,61.5,30.09,SSE,161,1.0,1.0,90,0.00,,,0.01,0,Wunderground v.1.15,2013-11-07 20:11:00,
2013-11-07 21:21:00,64.2,61.2,30.09,SSE,160,2.0,4.0,90,0.00,,,0.01,0,Wunderground v.1.15,2013-11-07 20:21:00,
2013-11-07 21:31:00,63.9,61.2,30.09,SSE,159,2.0,4.0,91,0.00,,,0.01,0,Wunderground v.1.15,2013-11-07 20:31:00,
2013-11-07 21:36:00,63.8,61.1,30.09,South,180,2.0,4.0,91,0.00,,,0.01,0,Wunderground v.1.15,2013-11-07 20:36:00,
2013-11-07 21:46:00,63.7,61.0,30.09,SSE,157,3.0,4.0,91,0.00,,,0.01,0,Wunderground v.1.15,2013-11-07 20:46:00,
2013-11-07 21:56:00,63.6,60.9,30.10,South,171,1.0,4.0,91,0.00,,,0.01,0,Wunderground v.1.15,2013-11-07 20:56:00,
2013-11-07 22:01:00,63.6,60.9,30.10,South,171,1.0,1.0,91,0.00,,,0.01,0,Wunderground v.1.15,2013-11-07 21:01:00,
2013-11-07 22:11:00,63.8,61.4,30.09,SSE,164,3.0,3.0,92,0.00,,,0.01,0,Wunderground v.1.15,2013-11-07 21:11:00,
2013-11-07 22:16:00,63.8,61.4,30.10,SSE,167,3.0,3.0,92,0.00,,,0.01,0,Wunderground v.1.15,2013-11-07 21:16:00,
2013-11-07 22:26:00,63.9,61.5,30.10,SSE,162,2.0,2.0,92,0.00,,,0.01,0,Wunderground v.1.15,2013-11-07 21:26:00,
2013-11-07 22:36:00,64.1,61.4,30.10,SSE,159,4.0,6.0,91,0.00,,,0.01,0,Wunderground v.1.15,2013-11-07 21:36:00,
2013-11-07 22:46:00,64.2,61.5,30.10,South,169,4.0,4.0,91,0.00,,,0.01,0,Wunderground v.1.15,2013-11-07 21:46:00,
2013-11-07 22:56:00,64.3,61.3,30.10,South,170,3.0,4.0,90,0.00,,,0.01,0,Wunderground v.1.15,2013-11-07 21:56:00,
2013-11-07 23:01:00,64.2,61.2,30.10,South,169,3.0,3.0,90,0.00,,,0.01,0,Wunderground v.1.15,2013-11-07 22:01:00,
2013-11-07 23:11:00,64.3,61.3,30.10,SSE,154,3.0,3.0,90,0.00,,,0.01,0,Wunderground v.1.15,2013-11-07 22:11:00,
2013-11-07 23:21:00,64.3,61.3,30.10,SSE,155,4.0,4.0,90,0.00,,,0.01,0,Wunderground v.1.15,2013-11-07 22:21:00,
2013-11-07 23:26:00,64.2,61.2,30.10,SSE,165,3.0,5.0,90,0.00,,,0.01,0,Wunderground v.1.15,2013-11-07 22:26:00,
2013-11-07 23:36:00,64.2,61.2,30.10,SSE,167,3.0,4.0,90,0.00,,,0.01,0,Wunderground v.1.15,2013-11-07 22:36:00,
2013-11-07 23:41:00,64.1,61.1,30.10,SE,133,3.0,3.0,90,0.00,,,0.01,0,Wunderground v.1.15,2013-11-07 22:41:00,
2013-11-07 23:51:00,64.2,61.2,30.09,SSE,165,4.0,4.0,90,0.00,,,0.01,0,Wunderground v.1.15,2013-11-07 22:51:00,